Terminal Aerodrome Forecast
Issued by NWS Cleveland, OH

Home | Current Version | Previous Version | Graphics & Text | Print | Product List | Glossary Off
Versions: 1 2 3 4 5 6 7 8 9 10 11 12 13 14 15 16 17 18 19 20 21 22 23 24 25 26 27 28

799
FTUS41 KCLE 170859 AAB
TAFCLE
TAF AMD
KCLE 170859Z 1709/1812 14008KT 5SM -RA BR BKN035
      TEMPO 1709/1713 2SM -RA BR OVC010
     FM171300 16012KT 4SM -RA BR SCT015 OVC025
     FM171800 24015G22KT P6SM SCT015 BKN050
     FM180000 24011KT P6SM BKN010=

USA.gov is the U.S. government's official web portal to all federal, state and local government web resources and services.